createdAt,value
2023-04-02T00:00:00.120Z,87746.00
2023-04-02T00:01:00.144Z,87746.00
2023-04-02T00:02:00.264Z,87746.00
2023-04-02T00:03:00.396Z,87746.00
2023-04-02T00:04:00.271Z,87750.00
2023-04-02T00:05:00.342Z,87748.00
2023-04-02T00:06:00.427Z,87746.00
2023-04-02T00:07:00.470Z,87746.00
2023-04-02T00:08:00.468Z,87750.00
2023-04-02T00:09:00.494Z,87746.00
2023-04-02T00:10:00.518Z,87748.00
2023-04-02T00:11:00.541Z,87746.00
2023-04-02T00:12:00.588Z,87746.00
2023-04-02T00:13:00.583Z,87748.00
2023-04-02T00:14:00.630Z,87746.00
2023-04-02T00:15:00.644Z,87748.00
2023-04-02T00:16:00.697Z,87748.00
2023-04-02T00:17:00.705Z,87750.00
2023-04-02T00:18:00.766Z,87750.00
2023-04-02T00:19:01.536Z,87748.00
2023-04-02T00:20:00.772Z,87748.00
2023-04-02T00:21:00.830Z,87748.00
2023-04-02T00:22:00.890Z,87746.00
2023-04-02T00:23:00.913Z,87748.00
2023-04-02T00:24:00.928Z,87750.00
2023-04-02T00:25:00.981Z,87750.00
2023-04-02T00:26:01.004Z,87750.00
2023-04-02T00:27:01.054Z,87750.00
2023-04-02T00:28:01.122Z,87752.00
2023-04-02T00:29:01.115Z,87750.00
2023-04-02T00:30:01.128Z,87750.00
2023-04-02T00:31:01.149Z,87750.00
2023-04-02T00:32:01.254Z,87750.00
2023-04-02T00:33:01.229Z,87750.00
2023-04-02T00:34:01.237Z,87750.00
2023-04-02T00:35:01.266Z,87750.00
2023-04-02T00:36:01.292Z,87752.00
2023-04-02T00:37:01.289Z,87752.00
2023-04-02T00:38:01.380Z,87750.00
2023-04-02T00:39:01.465Z,87750.00
2023-04-02T00:40:01.489Z,87750.00
2023-04-02T00:41:01.583Z,87750.00
2023-04-02T00:42:01.662Z,87750.00
2023-04-02T00:43:01.765Z,87748.00
2023-04-02T00:44:01.853Z,87752.00
2023-04-02T00:45:01.900Z,87750.00
2023-04-02T00:46:01.970Z,87748.00
2023-04-02T00:47:02.014Z,87752.00
2023-04-02T00:48:02.126Z,87752.00
2023-04-02T00:49:02.274Z,87752.00
2023-04-02T00:50:02.254Z,87754.00
2023-04-02T00:51:02.328Z,87750.00
2023-04-02T00:52:02.389Z,87750.00
2023-04-02T00:53:02.428Z,87750.00
2023-04-02T00:54:02.506Z,87748.00
2023-04-02T00:55:02.529Z,87748.00
2023-04-02T00:56:02.603Z,87750.00
2023-04-02T00:57:02.660Z,87746.00
2023-04-02T00:58:02.713Z,87746.00
2023-04-02T00:59:02.725Z,87746.00
2023-04-02T01:00:02.782Z,87746.00
2023-04-02T01:01:02.916Z,87744.00
2023-04-02T01:02:02.914Z,87744.00
2023-04-02T01:03:03.026Z,87744.00
2023-04-02T01:04:03.217Z,87744.00
2023-04-02T01:05:03.166Z,87744.00
2023-04-02T01:06:03.243Z,87744.00
2023-04-02T01:07:03.302Z,87746.00
2023-04-02T01:08:03.409Z,87744.00
2023-04-02T01:09:03.472Z,87746.00
2023-04-02T01:10:03.544Z,87746.00
2023-04-02T01:11:03.645Z,87746.00
2023-04-02T01:12:03.720Z,87743.00
2023-04-02T01:13:03.814Z,87744.00
2023-04-02T01:14:03.921Z,87744.00
2023-04-02T01:15:04.059Z,87744.00
2023-04-02T01:16:04.109Z,87744.00
2023-04-02T01:17:04.158Z,87743.00
2023-04-02T01:18:04.326Z,87743.00
2023-04-02T01:19:04.333Z,87741.00
2023-04-02T01:20:04.443Z,87741.00
2023-04-02T01:21:04.488Z,87741.00
2023-04-02T01:22:04.577Z,87743.00
2023-04-02T01:23:04.659Z,87743.00
2023-04-02T01:24:04.726Z,87743.00
2023-04-02T01:25:04.762Z,87744.00
2023-04-02T01:26:04.803Z,87741.00
2023-04-02T01:27:04.873Z,87744.00
2023-04-02T01:28:04.965Z,87746.00
2023-04-02T01:29:05.070Z,87750.00
2023-04-02T01:30:05.147Z,87748.00
2023-04-02T01:31:05.277Z,87750.00
2023-04-02T01:32:05.305Z,87748.00
2023-04-02T01:33:05.434Z,87748.00
2023-04-02T01:34:05.485Z,87748.00
2023-04-02T01:35:05.561Z,87750.00
2023-04-02T01:36:05.645Z,87750.00
2023-04-02T01:37:05.692Z,87750.00
2023-04-02T01:38:05.767Z,87750.00
2023-04-02T01:39:05.811Z,87750.00
2023-04-02T01:40:05.931Z,87748.00
2023-04-02T01:41:05.953Z,87750.00
2023-04-02T01:42:05.980Z,87752.00
2023-04-02T01:43:06.038Z,87752.00
2023-04-02T01:44:06.118Z,87754.00
2023-04-02T01:45:06.199Z,87754.00
2023-04-02T01:46:06.274Z,87756.00
2023-04-02T01:47:06.342Z,87756.00
2023-04-02T01:48:06.427Z,87756.00
2023-04-02T01:49:06.571Z,87760.00
2023-04-02T01:50:06.544Z,87762.00
2023-04-02T01:51:06.612Z,87762.00
2023-04-02T01:52:06.652Z,87762.00
2023-04-02T01:53:06.712Z,87762.00
2023-04-02T01:54:06.756Z,87764.00
2023-04-02T01:55:06.804Z,87762.00
2023-04-02T01:56:06.898Z,87760.00
2023-04-02T01:57:07.055Z,87764.00
2023-04-02T01:58:07.076Z,87766.00
2023-04-02T01:59:07.138Z,87762.00
2023-04-02T02:00:07.258Z,87764.00
2023-04-02T02:01:07.340Z,87766.00
2023-04-02T02:02:07.421Z,87766.00
2023-04-02T02:03:07.525Z,87764.00
2023-04-02T02:04:07.489Z,87762.00
2023-04-02T02:05:07.560Z,87762.00
2023-04-02T02:06:07.567Z,87764.00
2023-04-02T02:07:07.597Z,87762.00
2023-04-02T02:08:08.546Z,87764.00
2023-04-02T02:09:08.546Z,87764.00
2023-04-02T02:10:07.736Z,87766.00
2023-04-02T02:11:07.732Z,87762.00
2023-04-02T02:12:07.740Z,87766.00
2023-04-02T02:13:07.769Z,87764.00
2023-04-02T02:14:07.802Z,87764.00
2023-04-02T02:15:07.814Z,87768.00
2023-04-02T02:16:07.908Z,87768.00
2023-04-02T02:17:07.883Z,87770.00
2023-04-02T02:18:07.919Z,87768.00
2023-04-02T02:19:08.537Z,87768.00
2023-04-02T02:20:07.976Z,87768.00
2023-04-02T02:21:07.995Z,87766.00
2023-04-02T02:22:08.058Z,87768.00
2023-04-02T02:23:08.064Z,87768.00
2023-04-02T02:24:08.136Z,87772.00
2023-04-02T02:25:08.201Z,87770.00
2023-04-02T02:26:09.051Z,87772.00
2023-04-02T02:27:08.317Z,87774.00
2023-04-02T02:28:08.313Z,87774.00
2023-04-02T02:29:08.390Z,87776.00
2023-04-02T02:30:08.492Z,87778.00
2023-04-02T02:31:09.047Z,87780.00
2023-04-02T02:32:08.654Z,87780.00
2023-04-02T02:33:08.628Z,87782.00
2023-04-02T02:34:08.672Z,87782.00
2023-04-02T02:35:08.767Z,87782.00
2023-04-02T02:36:08.827Z,87782.00
2023-04-02T02:37:08.934Z,87780.00
2023-04-02T02:38:08.947Z,87776.00
2023-04-02T02:39:09.576Z,87776.00
2023-04-02T02:40:08.983Z,87776.00
2023-04-02T02:41:09.025Z,87778.00
2023-04-02T02:42:09.564Z,87778.00
2023-04-02T02:43:09.061Z,87778.00
2023-04-02T02:44:10.265Z,87778.00
2023-04-02T02:45:09.086Z,87778.00
2023-04-02T02:46:09.115Z,87778.00
2023-04-02T02:47:09.203Z,87778.00
2023-04-02T02:48:09.161Z,87778.00
2023-04-02T02:49:09.180Z,87778.00
2023-04-02T02:50:09.337Z,87780.00
2023-04-02T02:51:09.244Z,87780.00
2023-04-02T02:52:10.049Z,87782.00
2023-04-02T02:53:09.309Z,87784.00
2023-04-02T02:54:09.583Z,87782.00
2023-04-02T02:55:09.438Z,87784.00
2023-04-02T02:56:09.484Z,87786.00
2023-04-02T02:57:10.564Z,87788.00
2023-04-02T02:58:10.548Z,87786.00
2023-04-02T02:59:09.757Z,87788.00
2023-04-02T03:00:09.868Z,87784.00
2023-04-02T03:01:09.987Z,87790.00
2023-04-02T03:02:10.009Z,87792.00
2023-04-02T03:03:10.169Z,87792.00
2023-04-02T03:04:10.266Z,87792.00
2023-04-02T03:05:10.294Z,87794.00
2023-04-02T03:06:10.351Z,87792.00
2023-04-02T03:07:10.424Z,87796.00
2023-04-02T03:08:10.549Z,87794.00
2023-04-02T03:09:10.679Z,87799.00
2023-04-02T03:10:10.742Z,87799.00
2023-04-02T03:11:10.758Z,87799.00
2023-04-02T03:12:11.554Z,87801.00
2023-04-02T03:13:10.781Z,87801.00
2023-04-02T03:14:10.854Z,87803.00
2023-04-02T03:15:10.877Z,87801.00
2023-04-02T03:16:10.906Z,87809.00
2023-04-02T03:17:10.876Z,87809.00
2023-04-02T03:18:10.910Z,87809.00
2023-04-02T03:19:10.925Z,87809.00
2023-04-02T03:20:10.955Z,87811.00
2023-04-02T03:21:11.006Z,87811.00
2023-04-02T03:22:11.030Z,87815.00
2023-04-02T03:23:11.044Z,87817.00
2023-04-02T03:24:11.065Z,87815.00
2023-04-02T03:25:11.114Z,87813.00
2023-04-02T03:26:11.152Z,87817.00
2023-04-02T03:27:11.136Z,87815.00
2023-04-02T03:28:11.170Z,87813.00
2023-04-02T03:29:11.192Z,87817.00
2023-04-02T03:30:12.102Z,87817.00
2023-04-02T03:31:11.343Z,87815.00
2023-04-02T03:32:11.260Z,87819.00
2023-04-02T03:33:11.290Z,87817.00
2023-04-02T03:34:11.343Z,87819.00
2023-04-02T03:35:11.354Z,87817.00
2023-04-02T03:36:11.416Z,87819.00
2023-04-02T03:37:11.481Z,87819.00
2023-04-02T03:38:11.537Z,87821.00
2023-04-02T03:39:11.563Z,87823.00
2023-04-02T03:40:12.048Z,87819.00
2023-04-02T03:41:11.578Z,87819.00
2023-04-02T03:42:11.606Z,87825.00
2023-04-02T03:43:12.548Z,87827.00
2023-04-02T03:44:11.681Z,87825.00
2023-04-02T03:45:11.715Z,87827.00
2023-04-02T03:46:12.145Z,87823.00
2023-04-02T03:47:11.750Z,87823.00
2023-04-02T03:48:11.858Z,87825.00
2023-04-02T03:49:13.570Z,87823.00
2023-04-02T03:50:11.857Z,87821.00
2023-04-02T03:51:11.893Z,87821.00
2023-04-02T03:52:12.050Z,87823.00
2023-04-02T03:53:12.030Z,87823.00
2023-04-02T03:54:12.037Z,87827.00
2023-04-02T03:55:12.104Z,87827.00
2023-04-02T03:56:12.145Z,87827.00
2023-04-02T03:57:12.239Z,87823.00
2023-04-02T03:58:13.357Z,87827.00
2023-04-02T03:59:12.392Z,87825.00
2023-04-02T04:00:12.560Z,87823.00
2023-04-02T04:01:12.581Z,87827.00
2023-04-02T04:02:12.691Z,87827.00
2023-04-02T04:03:12.782Z,87825.00
2023-04-02T04:04:12.824Z,87829.00
2023-04-02T04:05:12.841Z,87831.00
2023-04-02T04:06:12.907Z,87829.00
2023-04-02T04:07:12.939Z,87831.00
2023-04-02T04:08:13.023Z,87831.00
2023-04-02T04:09:13.121Z,87833.00
2023-04-02T04:10:13.204Z,87831.00
2023-04-02T04:11:13.334Z,87835.00
2023-04-02T04:12:13.358Z,87837.00
2023-04-02T04:13:13.433Z,87839.00
2023-04-02T04:14:13.581Z,87841.00
2023-04-02T04:15:13.625Z,87839.00
2023-04-02T04:16:13.803Z,87839.00
2023-04-02T04:17:13.903Z,87843.00
2023-04-02T04:18:13.919Z,87845.00
2023-04-02T04:19:13.991Z,87846.00
2023-04-02T04:20:14.080Z,87846.00
2023-04-02T04:21:14.127Z,87848.00
2023-04-02T04:22:14.137Z,87848.00
2023-04-02T04:23:14.201Z,87850.00
2023-04-02T04:24:14.240Z,87850.00
2023-04-02T04:25:14.303Z,87850.00
2023-04-02T04:26:14.374Z,87854.00
2023-04-02T04:27:15.063Z,87852.00
2023-04-02T04:28:14.472Z,87856.00
2023-04-02T04:29:14.535Z,87856.00
2023-04-02T04:30:14.626Z,87860.00
2023-04-02T04:31:14.735Z,87858.00
2023-04-02T04:32:14.725Z,87864.00
2023-04-02T04:33:15.738Z,87862.00
2023-04-02T04:34:14.821Z,87868.00
2023-04-02T04:35:14.888Z,87868.00
2023-04-02T04:36:14.970Z,87872.00
2023-04-02T04:37:14.973Z,87874.00
2023-04-02T04:38:15.019Z,87876.00
2023-04-02T04:39:15.073Z,87876.00
2023-04-02T04:40:16.076Z,87876.00
2023-04-02T04:41:15.163Z,87878.00
2023-04-02T04:42:15.236Z,87880.00
2023-04-02T04:43:15.327Z,87878.00
2023-04-02T04:44:16.095Z,87880.00
2023-04-02T04:45:15.382Z,87880.00
2023-04-02T04:46:15.553Z,87880.00
2023-04-02T04:47:15.591Z,87882.00
2023-04-02T04:48:15.556Z,87880.00
2023-04-02T04:49:15.638Z,87882.00
2023-04-02T04:50:15.697Z,87884.00
2023-04-02T04:51:15.697Z,87888.00
2023-04-02T04:52:15.776Z,87888.00
2023-04-02T04:53:15.807Z,87888.00
2023-04-02T04:54:15.833Z,87888.00
2023-04-02T04:55:15.983Z,87892.00
2023-04-02T04:56:19.257Z,87892.00
2023-04-02T04:57:16.021Z,87896.00
2023-04-02T04:58:16.022Z,87898.00
2023-04-02T04:59:16.078Z,87898.00
2023-04-02T05:00:16.081Z,87901.00
2023-04-02T05:01:16.199Z,87901.00
2023-04-02T05:02:16.174Z,87905.00
2023-04-02T05:03:16.198Z,87909.00
2023-04-02T05:04:16.287Z,87909.00
2023-04-02T05:05:16.274Z,87907.00
2023-04-02T05:06:16.304Z,87907.00
2023-04-02T05:07:16.341Z,87907.00
2023-04-02T05:08:16.378Z,87911.00
2023-04-02T05:09:16.428Z,87913.00
2023-04-02T05:10:16.480Z,87913.00
2023-04-02T05:11:16.481Z,87911.00
2023-04-02T05:12:16.519Z,87917.00
2023-04-02T05:13:16.555Z,87915.00
2023-04-02T05:14:16.579Z,87915.00
2023-04-02T05:15:16.613Z,87919.00
2023-04-02T05:16:16.683Z,87917.00
2023-04-02T05:17:16.666Z,87917.00
2023-04-02T05:18:16.705Z,87917.00
2023-04-02T05:19:16.736Z,87917.00
2023-04-02T05:20:16.755Z,87917.00
2023-04-02T05:21:16.796Z,87923.00
2023-04-02T05:22:17.083Z,87921.00
2023-04-02T05:23:16.978Z,87923.00
2023-04-02T05:24:16.915Z,87923.00
2023-04-02T05:25:16.975Z,87923.00
2023-04-02T05:26:17.568Z,87921.00
2023-04-02T05:27:17.092Z,87925.00
2023-04-02T05:28:17.122Z,87925.00
2023-04-02T05:29:18.079Z,87927.00
2023-04-02T05:30:18.166Z,87929.00
2023-04-02T05:31:17.487Z,87931.00
2023-04-02T05:32:17.472Z,87929.00
2023-04-02T05:33:17.566Z,87933.00
2023-04-02T05:34:17.630Z,87933.00
2023-04-02T05:35:17.713Z,87937.00
2023-04-02T05:36:17.803Z,87933.00
2023-04-02T05:37:17.908Z,87933.00
2023-04-02T05:38:17.929Z,87935.00
2023-04-02T05:39:18.034Z,87935.00
2023-04-02T05:40:18.129Z,87941.00
2023-04-02T05:41:18.205Z,87939.00
2023-04-02T05:42:18.265Z,87939.00
2023-04-02T05:43:18.311Z,87939.00
2023-04-02T05:44:18.385Z,87941.00
2023-04-02T05:45:18.424Z,87941.00
2023-04-02T05:46:18.469Z,87943.00
2023-04-02T05:47:18.443Z,87941.00
2023-04-02T05:48:18.457Z,87943.00
2023-04-02T05:49:18.485Z,87945.00
2023-04-02T05:50:18.523Z,87945.00
2023-04-02T05:51:18.525Z,87943.00
2023-04-02T05:52:18.571Z,87947.00
2023-04-02T05:53:18.575Z,87947.00
2023-04-02T05:54:18.574Z,87947.00
2023-04-02T05:55:18.600Z,87945.00
2023-04-02T05:56:18.594Z,87947.00
2023-04-02T05:57:19.358Z,87950.00
2023-04-02T05:59:18.645Z,87947.00
2023-04-02T06:00:19.565Z,87948.00
2023-04-02T06:01:18.669Z,87947.00
2023-04-02T06:02:18.761Z,87947.00
2023-04-02T06:03:18.767Z,87947.00
2023-04-02T06:04:18.744Z,87945.00
2023-04-02T06:05:18.753Z,87947.00
2023-04-02T06:06:18.798Z,87947.00
2023-04-02T06:07:18.799Z,87950.00
2023-04-02T06:08:18.817Z,87950.00
2023-04-02T06:09:18.823Z,87955.00
2023-04-02T06:10:18.826Z,87955.00
2023-04-02T06:11:18.840Z,87948.00
2023-04-02T06:12:18.859Z,87950.00
2023-04-02T06:13:18.834Z,87950.00
2023-04-02T06:14:18.842Z,87950.00
2023-04-02T06:15:18.880Z,87950.00
2023-04-02T06:16:18.876Z,87950.00
2023-04-02T06:17:18.886Z,87955.00
2023-04-02T06:18:18.902Z,87956.00
2023-04-02T06:19:18.906Z,87955.00
2023-04-02T06:20:18.912Z,87956.00
2023-04-02T06:21:18.910Z,87956.00
2023-04-02T06:22:18.919Z,87958.00
2023-04-02T06:23:18.981Z,87956.00
2023-04-02T06:24:18.916Z,87956.00
2023-04-02T06:25:18.924Z,87956.00
2023-04-02T06:26:18.948Z,87955.00
2023-04-02T06:27:18.954Z,87960.00
2023-04-02T06:28:19.032Z,87958.00
2023-04-02T06:29:18.993Z,87958.00
2023-04-02T06:30:19.006Z,87958.00
2023-04-02T06:31:19.043Z,87958.00
2023-04-02T06:32:19.068Z,87958.00
2023-04-02T06:33:19.097Z,87958.00
2023-04-02T06:34:19.102Z,87958.00
2023-04-02T06:35:19.306Z,87960.00
2023-04-02T06:36:19.154Z,87962.00
2023-04-02T06:37:19.142Z,87960.00
2023-04-02T06:38:19.184Z,87962.00
2023-04-02T06:39:19.261Z,87958.00
2023-04-02T06:40:19.333Z,87960.00
2023-04-02T06:41:19.399Z,87958.00
2023-04-02T06:42:19.479Z,87958.00
2023-04-02T06:43:19.514Z,87962.00
2023-04-02T06:44:19.587Z,87962.00
2023-04-02T06:45:19.610Z,87960.00
2023-04-02T06:46:19.650Z,87964.00
2023-04-02T06:47:19.679Z,87960.00
2023-04-02T06:48:19.695Z,87964.00
2023-04-02T06:49:19.712Z,87966.00
2023-04-02T06:50:19.717Z,87964.00
2023-04-02T06:51:19.716Z,87966.00
2023-04-02T06:52:19.747Z,87966.00
2023-04-02T06:53:19.759Z,87962.00
2023-04-02T06:54:19.753Z,87962.00
2023-04-02T06:55:19.845Z,87962.00
2023-04-02T06:56:19.807Z,87962.00
2023-04-02T06:57:19.829Z,87962.00
2023-04-02T06:58:19.832Z,87966.00
2023-04-02T06:59:19.844Z,87968.00
2023-04-02T07:00:19.839Z,87964.00
2023-04-02T07:01:19.868Z,87968.00
2023-04-02T07:02:19.845Z,87964.00
2023-04-02T07:03:19.849Z,87964.00
2023-04-02T07:04:20.634Z,87966.00
2023-04-02T07:05:19.925Z,87964.00
2023-04-02T07:06:20.591Z,87964.00
2023-04-02T07:07:20.032Z,87966.00
2023-04-02T07:08:20.106Z,87966.00
2023-04-02T07:09:20.171Z,87970.00
2023-04-02T07:10:20.212Z,87970.00
2023-04-02T07:11:21.049Z,87968.00
2023-04-02T07:12:20.305Z,87968.00
2023-04-02T07:13:20.315Z,87972.00
2023-04-02T07:14:20.295Z,87968.00
2023-04-02T07:15:20.303Z,87972.00
2023-04-02T07:16:20.364Z,87972.00
2023-04-02T07:17:20.327Z,87976.00
2023-04-02T07:18:20.303Z,87976.00
2023-04-02T07:19:20.335Z,87976.00
2023-04-02T07:20:21.099Z,87978.00
2023-04-02T07:21:20.315Z,87985.00
2023-04-02T07:22:20.303Z,87987.00
2023-04-02T07:23:20.307Z,87978.00
2023-04-02T07:24:20.297Z,87985.00
2023-04-02T07:25:20.310Z,87978.00
2023-04-02T07:26:20.308Z,87978.00
2023-04-02T07:27:20.318Z,87987.00
2023-04-02T07:28:22.006Z,87978.00
2023-04-02T07:29:20.345Z,87987.00
2023-04-02T07:30:20.352Z,87985.00
2023-04-02T07:31:20.420Z,87985.00
2023-04-02T07:32:20.367Z,87987.00
2023-04-02T07:33:20.411Z,87987.00
2023-04-02T07:34:20.465Z,87985.00
2023-04-02T07:35:20.505Z,87978.00
2023-04-02T07:36:20.601Z,87989.00
2023-04-02T07:37:20.644Z,87985.00
2023-04-02T07:38:20.705Z,87985.00
2023-04-02T07:39:20.729Z,87989.00
2023-04-02T07:40:20.780Z,87987.00
2023-04-02T07:42:04.198Z,87989.00
2023-04-02T07:43:04.169Z,87991.00
2023-04-02T07:44:04.174Z,87989.00
2023-04-02T07:45:06.091Z,87989.00
2023-04-02T07:46:04.136Z,87991.00
2023-04-02T07:47:04.240Z,87989.00
2023-04-02T07:48:04.120Z,87989.00
2023-04-02T07:49:04.068Z,87987.00
2023-04-02T07:50:04.041Z,87985.00
2023-04-02T07:51:04.012Z,87987.00
2023-04-02T07:52:03.987Z,87987.00
2023-04-02T07:53:03.971Z,87991.00
2023-04-02T07:54:03.948Z,87989.00
2023-04-02T07:55:03.892Z,87989.00
2023-04-02T07:56:03.872Z,87991.00
2023-04-02T07:57:03.913Z,87991.00
2023-04-02T07:58:03.828Z,87991.00
2023-04-02T07:59:03.813Z,87991.00
2023-04-02T08:00:03.832Z,87993.00
2023-04-02T08:01:03.885Z,87995.00
2023-04-02T08:02:03.752Z,87993.00
2023-04-02T08:03:03.851Z,87995.00
2023-04-02T08:04:03.739Z,87995.00
2023-04-02T08:05:03.699Z,87997.00
2023-04-02T08:06:03.691Z,87999.00
2023-04-02T08:07:04.376Z,87999.00
2023-04-02T08:08:03.743Z,88001.00
2023-04-02T08:09:03.703Z,88003.00
2023-04-02T08:10:03.754Z,88003.00
2023-04-02T08:11:03.737Z,88003.00
2023-04-02T08:12:03.698Z,88005.00
2023-04-02T08:13:03.681Z,88005.00
2023-04-02T08:14:03.670Z,88003.00
2023-04-02T08:15:03.652Z,88007.00
2023-04-02T08:16:03.697Z,88003.00
2023-04-02T08:17:03.660Z,88005.00
2023-04-02T08:18:03.701Z,88005.00
2023-04-02T08:19:03.658Z,88007.00
2023-04-02T08:20:03.681Z,88003.00
2023-04-02T08:21:03.686Z,88010.00
2023-04-02T08:22:03.756Z,88005.00
2023-04-02T08:23:03.771Z,88007.00
2023-04-02T08:24:03.841Z,88008.00
2023-04-02T08:25:03.813Z,88005.00
2023-04-02T08:26:03.844Z,88008.00
2023-04-02T08:27:03.864Z,88005.00
2023-04-02T08:28:03.898Z,88007.00
2023-04-02T08:29:03.984Z,88012.00
2023-04-02T08:30:03.944Z,88012.00
2023-04-02T08:31:04.041Z,88012.00
2023-04-02T08:32:04.935Z,88014.00
2023-04-02T08:33:04.033Z,88012.00
2023-04-02T08:34:04.018Z,88014.00
2023-04-02T08:35:04.049Z,88012.00
2023-04-02T08:36:04.125Z,88020.00
2023-04-02T08:37:04.045Z,88010.00
2023-04-02T08:38:04.061Z,88010.00
2023-04-02T08:39:04.087Z,88012.00
2023-04-02T08:40:04.084Z,88008.00
2023-04-02T08:41:04.117Z,88010.00
2023-04-02T08:42:04.139Z,88010.00
2023-04-02T08:43:04.168Z,88008.00
2023-04-02T08:44:04.246Z,88007.00
2023-04-02T08:45:13.713Z,88010.00
2023-04-02T08:46:05.243Z,88012.00
2023-04-02T08:47:04.204Z,88010.00
2023-04-02T08:48:04.264Z,88008.00
2023-04-02T08:49:04.257Z,88016.00
2023-04-02T08:50:04.105Z,88014.00
2023-04-02T08:51:04.903Z,88014.00
2023-04-02T08:52:04.047Z,88012.00
2023-04-02T08:53:04.019Z,88010.00
2023-04-02T08:54:03.998Z,88007.00
2023-04-02T08:55:03.952Z,88012.00
2023-04-02T08:56:03.901Z,88010.00
2023-04-02T08:57:03.909Z,88008.00
2023-04-02T08:58:03.926Z,88007.00
2023-04-02T08:59:03.875Z,88007.00
2023-04-02T09:00:04.414Z,88007.00
2023-04-02T09:01:03.749Z,88008.00
2023-04-02T09:02:03.797Z,88010.00
2023-04-02T09:03:03.731Z,88008.00
2023-04-02T09:04:06.396Z,88010.00
2023-04-02T09:05:05.416Z,88010.00
2023-04-02T09:06:03.606Z,88010.00
2023-04-02T09:07:03.547Z,88012.00
2023-04-02T09:08:03.520Z,88012.00
2023-04-02T09:09:03.528Z,88012.00
2023-04-02T09:10:04.382Z,88012.00
2023-04-02T09:11:03.425Z,88020.00
2023-04-02T09:12:03.360Z,88016.00
2023-04-02T09:13:03.319Z,88018.00
2023-04-02T09:14:03.895Z,88016.00
2023-04-02T09:15:03.886Z,88018.00
2023-04-02T09:16:03.220Z,88018.00
2023-04-02T09:17:03.150Z,88020.00
2023-04-02T09:18:03.249Z,88020.00
2023-04-02T09:19:03.099Z,88020.00
2023-04-02T09:20:03.899Z,88022.00
2023-04-02T09:21:02.996Z,88026.00
2023-04-02T09:22:02.967Z,88022.00
2023-04-02T09:23:02.929Z,88022.00
2023-04-02T09:24:04.040Z,88018.00
2023-04-02T09:25:02.882Z,88016.00
2023-04-02T09:26:04.827Z,88014.00
2023-04-02T09:27:02.856Z,88016.00
2023-04-02T09:28:02.883Z,88014.00
2023-04-02T09:29:02.816Z,88014.00
2023-04-02T09:30:02.750Z,88016.00
2023-04-02T09:31:03.328Z,88026.00
2023-04-02T09:32:02.725Z,88020.00
2023-04-02T09:33:03.505Z,88012.00
2023-04-02T09:34:02.648Z,88016.00
2023-04-02T09:35:05.639Z,88014.00
2023-04-02T09:36:03.659Z,88026.00
2023-04-02T09:37:02.581Z,88016.00
2023-04-02T09:38:04.418Z,88020.00
2023-04-02T09:39:02.530Z,88018.00
2023-04-02T09:40:02.527Z,88018.00
2023-04-02T09:41:02.495Z,88024.00
2023-04-02T09:42:05.757Z,88026.00
2023-04-02T09:43:02.465Z,88022.00
2023-04-02T09:44:03.385Z,88020.00
2023-04-02T09:45:02.438Z,88020.00
2023-04-02T09:46:02.416Z,88022.00
2023-04-02T09:47:02.400Z,88022.00
2023-04-02T09:48:02.383Z,88022.00
2023-04-02T09:49:02.363Z,88020.00
2023-04-02T09:50:02.362Z,88026.00
2023-04-02T09:51:02.338Z,88026.00
2023-04-02T09:52:02.336Z,88026.00
2023-04-02T09:53:02.261Z,88030.00
2023-04-02T09:54:02.208Z,88032.00
2023-04-02T09:55:02.206Z,88032.00
2023-04-02T09:56:02.172Z,88032.00
2023-04-02T09:57:02.203Z,88032.00
2023-04-02T09:58:03.102Z,88030.00
2023-04-02T09:59:02.077Z,88034.00
2023-04-02T10:00:02.078Z,88024.00
2023-04-02T10:01:03.975Z,88028.00
2023-04-02T10:02:01.972Z,88024.00
2023-04-02T10:03:02.033Z,88026.00
2023-04-02T10:04:02.933Z,88032.00
2023-04-02T10:05:01.964Z,88032.00
2023-04-02T10:06:01.902Z,88028.00
2023-04-02T10:07:01.849Z,88028.00
2023-04-02T10:08:01.820Z,88026.00
2023-04-02T10:09:01.782Z,88042.00
2023-04-02T10:10:01.792Z,88024.00
2023-04-02T10:11:01.718Z,88034.00
2023-04-02T10:12:01.711Z,88026.00
2023-04-02T10:13:03.429Z,88026.00
2023-04-02T10:14:01.623Z,88022.00
2023-04-02T10:15:01.655Z,88024.00
2023-04-02T10:16:01.587Z,88032.00
2023-04-02T10:17:01.623Z,88034.00
2023-04-02T10:18:01.633Z,88024.00
2023-04-02T10:19:01.602Z,88040.00
2023-04-02T10:20:01.651Z,88026.00
2023-04-02T10:21:01.600Z,88028.00
2023-04-02T10:22:01.598Z,88028.00
2023-04-02T10:23:01.588Z,88022.00
2023-04-02T10:24:01.611Z,88028.00
2023-04-02T10:25:01.680Z,88024.00
2023-04-02T10:26:01.593Z,88034.00
2023-04-02T10:27:02.538Z,88020.00
2023-04-02T10:28:01.539Z,88022.00
2023-04-02T10:29:01.446Z,88030.00
2023-04-02T10:30:01.415Z,88032.00
2023-04-02T10:31:01.413Z,88028.00
2023-04-02T10:32:01.911Z,88030.00
2023-04-02T10:33:01.332Z,88026.00
2023-04-02T10:34:01.213Z,88022.00
2023-04-02T10:35:01.184Z,88028.00
2023-04-02T10:36:01.125Z,88026.00
2023-04-02T10:37:01.067Z,88020.00
2023-04-02T10:38:01.016Z,88024.00
2023-04-02T10:39:00.957Z,88016.00
2023-04-02T10:40:00.967Z,88024.00
2023-04-02T10:41:00.878Z,88022.00
2023-04-02T10:42:00.799Z,88022.00
2023-04-02T10:43:00.744Z,88020.00
2023-04-02T10:44:12.611Z,88024.00
2023-04-02T10:45:01.849Z,88030.00
2023-04-02T10:46:00.873Z,88024.00
2023-04-02T10:47:00.832Z,88024.00
2023-04-02T10:48:00.870Z,88028.00
2023-04-02T10:49:00.828Z,88024.00
2023-04-02T10:50:00.816Z,88034.00
2023-04-02T10:51:01.491Z,88024.00
2023-04-02T10:52:00.769Z,88020.00
2023-04-02T10:53:00.744Z,88018.00
2023-04-02T10:54:00.743Z,88020.00
2023-04-02T10:55:00.734Z,88028.00
2023-04-02T10:56:00.722Z,88024.00
2023-04-02T10:57:00.673Z,88018.00
2023-04-02T10:58:01.407Z,88022.00
2023-04-02T10:59:00.653Z,88024.00
2023-04-02T11:00:00.644Z,88030.00
2023-04-02T11:01:00.702Z,88028.00
2023-04-02T11:02:00.652Z,88030.00
2023-04-02T11:03:01.621Z,88034.00
2023-04-02T11:04:00.668Z,88028.00
2023-04-02T11:05:01.997Z,88026.00
2023-04-02T11:06:00.660Z,88026.00
2023-04-02T11:07:13.196Z,88028.00
2023-04-02T11:08:01.631Z,88026.00
2023-04-02T11:09:00.743Z,88024.00
2023-04-02T11:10:01.434Z,88030.00
2023-04-02T11:11:01.402Z,88024.00
2023-04-02T11:12:00.499Z,88028.00
2023-04-02T11:13:01.425Z,88024.00
2023-04-02T11:14:00.400Z,88026.00
2023-04-02T11:15:00.401Z,88024.00
2023-04-02T11:16:00.370Z,88028.00
2023-04-02T11:17:01.036Z,88026.00
2023-04-02T11:18:00.260Z,88030.00
2023-04-02T11:19:00.128Z,88024.00
2023-04-02T11:20:00.050Z,88030.00
2023-04-02T11:21:00.009Z,88038.00
2023-04-02T11:22:01.486Z,88040.00
2023-04-02T11:23:02.433Z,88038.00
2023-04-02T11:24:00.056Z,88032.00
2023-04-02T11:25:00.052Z,88044.00
2023-04-02T11:26:00.069Z,88040.00
2023-04-02T11:27:00.073Z,88048.00
2023-04-02T11:28:00.127Z,88052.00
2023-04-02T11:29:00.142Z,88044.00
2023-04-02T11:30:00.173Z,88054.00
2023-04-02T11:31:00.150Z,88054.00
2023-04-02T11:32:00.135Z,88052.00
2023-04-02T11:33:00.163Z,88058.00
2023-04-02T11:34:00.090Z,88054.00
2023-04-02T11:35:06.526Z,88063.00
2023-04-02T11:36:01.075Z,88062.00
2023-04-02T11:36:59.974Z,88062.00
2023-04-02T11:37:59.935Z,88065.00
2023-04-02T11:39:14.752Z,88063.00
2023-04-02T11:40:01.412Z,88067.00
2023-04-02T11:40:59.879Z,88063.00
2023-04-02T11:41:59.830Z,88067.00
2023-04-02T11:42:59.915Z,88065.00
2023-04-02T11:43:59.837Z,88069.00
2023-04-02T11:44:59.756Z,88067.00
2023-04-02T11:45:59.742Z,88073.00